Time;durP1;ratioP1;P1;durP2;ratioP2;P2;SDS_P1;SDS_P2;PMS_P1;PMS_P2;Temp;Humidity;BMP_temperature;BMP_pressure;BME280_temperature;BME280_humidity;BME280_pressure;Samples;Min_cycle;Max_cycle;Signal;HPM_P1;HPM_P2
2022/12/24 00:02:16;;;;;;;26.25;12.18;;;8.60;99.90;;;;;;4979750;28;20030;-80
2022/12/24 00:04:42;;;;;;;24.05;12.35;;;8.70;99.90;;;;;;4963144;28;20034;-80
2022/12/24 00:07:08;;;;;;;22.88;11.52;;;8.60;99.90;;;;;;4954271;28;20425;-80
2022/12/24 00:09:33;;;;;;;23.40;11.35;;;8.60;99.90;;;;;;4963461;28;20061;-80
2022/12/24 00:11:59;;;;;;;18.60;10.27;;;8.60;99.90;;;;;;4978870;28;20397;-79
2022/12/24 00:14:25;;;;;;;20.45;10.07;;;8.60;99.90;;;;;;4994737;28;20074;-80
2022/12/24 00:16:50;;;;;;;14.18;9.25;;;8.60;99.90;;;;;;4970289;28;20034;-79
2022/12/24 00:19:16;;;;;;;20.17;8.90;;;8.60;99.90;;;;;;4963373;28;20038;-79
2022/12/24 00:21:41;;;;;;;21.42;9.25;;;8.50;99.90;;;;;;4963567;28;20038;-79
2022/12/24 00:24:07;;;;;;;16.88;8.90;;;8.50;99.90;;;;;;4978715;28;20034;-79
2022/12/24 00:26:33;;;;;;;18.98;8.57;;;8.50;99.90;;;;;;4965506;28;20504;-80
2022/12/24 00:28:59;;;;;;;14.95;8.57;;;8.50;99.90;;;;;;4963666;28;20088;-79
2022/12/24 00:31:24;;;;;;;18.20;8.77;;;8.50;99.90;;;;;;4978467;28;20089;-79
2022/12/24 00:33:50;;;;;;;20.55;8.35;;;8.50;99.90;;;;;;4959615;28;20580;-79
2022/12/24 00:36:17;;;;;;;17.13;8.90;;;8.50;99.90;;;;;;4966705;28;20519;-80
2022/12/24 00:38:43;;;;;;;13.23;7.20;;;8.60;99.90;;;;;;4979570;28;20051;-80
2022/12/24 00:41:27;;;;;;;14.85;7.50;;;8.50;99.90;;;;;;4979326;28;20039;-80
2022/12/24 00:44:04;;;;;;;15.73;7.50;;;8.50;99.90;;;;;;4962681;28;20049;-80
2022/12/24 00:46:32;;;;;;;17.42;8.48;;;8.50;99.90;;;;;;4979470;28;20054;-80
2022/12/24 00:48:59;;;;;;;19.33;8.95;;;8.50;99.90;;;;;;4963691;28;20547;-79
2022/12/24 00:51:24;;;;;;;17.52;9.27;;;8.50;99.90;;;;;;4967046;28;20043;-80
2022/12/24 00:53:50;;;;;;;19.42;9.32;;;8.50;99.90;;;;;;4978492;28;20416;-80
2022/12/24 00:56:17;;;;;;;17.38;9.10;;;8.50;99.90;;;;;;4979068;28;20034;-80
2022/12/24 00:58:42;;;;;;;19.95;10.10;;;8.50;99.90;;;;;;4963656;28;20034;-80
2022/12/24 01:01:08;;;;;;;17.25;9.77;;;8.50;99.90;;;;;;4979041;28;20507;-79
2022/12/24 01:03:36;;;;;;;16.48;9.93;;;8.50;99.90;;;;;;4974148;28;20057;-80
2022/12/24 01:06:11;;;;;;;19.63;8.73;;;8.50;99.90;;;;;;4973750;28;20425;-80
2022/12/24 01:08:37;;;;;;;13.77;7.03;;;8.50;99.90;;;;;;4980253;28;20505;-80
2022/12/24 01:11:04;;;;;;;11.95;6.50;;;8.60;99.90;;;;;;4966530;28;20053;-80
2022/12/24 01:13:30;;;;;;;11.15;6.53;;;8.60;99.90;;;;;;4984253;28;20050;-80
2022/12/24 01:15:55;;;;;;;12.77;6.88;;;8.60;99.90;;;;;;4983147;28;20039;-79
2022/12/24 01:18:22;;;;;;;12.50;6.20;;;8.60;99.90;;;;;;4972233;28;20068;-80
2022/12/24 01:20:59;;;;;;;13.65;5.50;;;8.60;99.90;;;;;;4957680;28;20107;-79
2022/12/24 01:23:25;;;;;;;16.17;5.80;;;8.60;99.90;;;;;;4958485;28;20066;-79
2022/12/24 01:25:51;;;;;;;19.15;6.47;;;8.60;99.90;;;;;;4973927;28;20529;-80
2022/12/24 01:28:20;;;;;;;24.45;7.30;;;8.60;99.90;;;;;;4970862;28;20157;-80
2022/12/24 01:30:47;;;;;;;26.17;9.10;;;8.60;99.90;;;;;;4976524;28;20038;-80
2022/12/24 01:33:13;;;;;;;30.88;8.68;;;8.60;99.90;;;;;;4959099;28;20045;-79
2022/12/24 01:35:40;;;;;;;28.42;7.47;;;8.50;99.90;;;;;;4974960;28;20038;-80
2022/12/24 01:38:06;;;;;;;39.72;8.25;;;8.60;99.90;;;;;;4972234;28;20106;-79
2022/12/24 01:43:23;;;;;;;31.10;6.18;;;8.50;99.90;;;;;;4962617;28;20386;-79
2022/12/24 01:45:51;;;;;;;41.53;6.57;;;8.50;99.90;;;;;;4973361;28;20042;-79
2022/12/24 01:48:38;;;;;;;38.42;5.95;;;8.50;99.90;;;;;;4956260;28;20034;-78
2022/12/24 01:51:24;;;;;;;43.33;6.38;;;8.40;99.90;;;;;;4977522;28;20076;-79
2022/12/24 01:53:58;;;;;;;40.83;6.00;;;8.40;99.90;;;;;;4944005;28;20128;-79
2022/12/24 01:56:25;;;;;;;41.10;5.55;;;8.40;99.90;;;;;;4972056;28;20042;-79
2022/12/24 01:58:56;;;;;;;42.38;6.18;;;8.40;99.90;;;;;;4969356;28;20034;-79
2022/12/24 02:01:22;;;;;;;47.80;6.38;;;8.30;99.90;;;;;;4978471;28;20057;-79
2022/12/24 02:03:48;;;;;;;45.47;7.32;;;8.30;99.90;;;;;;4960980;28;20046;-79
2022/12/24 02:06:15;;;;;;;43.70;5.55;;;8.30;99.90;;;;;;4966544;28;20027;-79
2022/12/24 02:08:41;;;;;;;39.85;6.18;;;8.40;99.90;;;;;;4993523;28;20034;-80
2022/12/24 02:11:13;;;;;;;37.38;5.85;;;8.30;99.90;;;;;;4977354;28;20401;-79
2022/12/24 02:13:39;;;;;;;36.25;5.35;;;8.30;99.90;;;;;;4961084;28;20057;-78
2022/12/24 02:16:37;;;;;;;30.67;5.95;;;8.30;99.90;;;;;;4971929;28;20563;-78
2022/12/24 02:19:18;;;;;;;33.80;6.15;;;8.30;99.90;;;;;;4962046;28;20521;-79
2022/12/24 02:21:50;;;;;;;36.95;5.38;;;8.40;99.90;;;;;;4976917;28;20034;-79
2022/12/24 02:24:55;;;;;;;47.25;6.63;;;8.40;99.90;;;;;;4970981;28;20094;-79
2022/12/24 02:27:32;;;;;;;36.50;6.22;;;8.40;99.90;;;;;;4977805;28;20084;-79
2022/12/24 02:30:05;;;;;;;40.03;5.40;;;8.50;99.90;;;;;;4975396;28;20401;-78
2022/12/24 02:32:55;;;;;;;34.90;6.55;;;8.50;99.90;;;;;;4959285;28;20030;-80
2022/12/24 02:35:32;;;;;;;33.10;5.93;;;8.50;99.90;;;;;;4961680;28;20030;-79
2022/12/24 02:38:07;;;;;;;37.08;5.57;;;8.50;99.90;;;;;;4962055;28;20042;-80
2022/12/24 02:40:45;;;;;;;32.78;6.05;;;8.50;99.90;;;;;;4980045;28;20677;-80
2022/12/24 02:43:20;;;;;;;32.20;5.25;;;8.50;99.90;;;;;;4963417;28;20039;-78
2022/12/24 02:45:52;;;;;;;38.92;6.13;;;8.50;99.90;;;;;;4979970;28;20345;-79
2022/12/24 02:48:21;;;;;;;35.53;5.38;;;8.50;99.90;;;;;;4959545;28;20112;-79
2022/12/24 02:51:00;;;;;;;30.70;5.22;;;8.50;99.90;;;;;;4976058;28;20052;-79
2022/12/24 02:53:25;;;;;;;33.70;5.97;;;8.50;99.90;;;;;;4959393;28;20081;-79
2022/12/24 02:56:04;;;;;;;34.60;5.65;;;8.50;99.90;;;;;;4966699;28;20127;-80
2022/12/24 02:58:49;;;;;;;39.10;6.28;;;8.50;99.90;;;;;;4975365;28;20062;-79
2022/12/24 03:01:42;;;;;;;40.08;7.75;;;8.50;99.90;;;;;;4956544;28;20034;-79
2022/12/24 03:04:39;;;;;;;34.78;5.60;;;8.50;99.90;;;;;;4978797;28;20088;-80
2022/12/24 03:07:11;;;;;;;37.70;5.50;;;8.50;99.90;;;;;;4963349;28;20034;-79
2022/12/24 03:10:11;;;;;;;33.40;6.03;;;8.50;99.90;;;;;;4956156;28;20039;-79
2022/12/24 03:12:42;;;;;;;38.85;6.65;;;8.50;99.90;;;;;;4975078;28;20039;-79
2022/12/24 03:15:12;;;;;;;40.95;5.75;;;8.50;99.90;;;;;;4979840;28;20038;-80
2022/12/24 03:17:39;;;;;;;38.15;5.47;;;8.50;99.90;;;;;;4978110;28;20038;-79
2022/12/24 03:20:08;;;;;;;38.20;5.70;;;8.50;99.90;;;;;;4972491;28;20061;-79
2022/12/24 03:22:35;;;;;;;35.55;5.97;;;8.50;99.90;;;;;;4983183;28;20125;-80
2022/12/24 03:25:01;;;;;;;35.88;5.88;;;8.50;99.90;;;;;;4973536;28;20038;-79
2022/12/24 03:27:29;;;;;;;48.60;6.70;;;8.50;99.90;;;;;;4978863;28;20035;-79
2022/12/24 03:29:56;;;;;;;38.53;5.10;;;8.50;99.90;;;;;;4970291;28;20046;-79
2022/12/24 03:32:28;;;;;;;34.00;4.63;;;8.50;99.90;;;;;;4978472;28;20038;-80
2022/12/24 03:34:54;;;;;;;32.30;5.60;;;8.50;99.90;;;;;;4978143;28;20038;-79
2022/12/24 03:37:20;;;;;;;40.78;5.78;;;8.50;99.90;;;;;;4960641;28;20038;-79
2022/12/24 03:39:46;;;;;;;31.90;5.85;;;8.50;99.90;;;;;;4969214;28;20038;-79
2022/12/24 03:42:12;;;;;;;37.13;5.57;;;8.50;99.90;;;;;;4977547;28;20042;-79
2022/12/24 03:44:37;;;;;;;37.13;5.32;;;8.50;99.90;;;;;;4977488;28;20042;-80
2022/12/24 03:47:03;;;;;;;34.65;5.10;;;8.50;99.90;;;;;;4958067;28;20039;-79
2022/12/24 03:49:29;;;;;;;35.05;6.05;;;8.50;99.90;;;;;;4954575;28;20050;-79
2022/12/24 03:51:55;;;;;;;33.88;6.20;;;8.50;99.90;;;;;;4977749;28;20135;-80
2022/12/24 03:54:21;;;;;;;29.88;5.78;;;8.50;99.90;;;;;;4976154;28;20046;-80
2022/12/24 03:56:46;;;;;;;35.85;5.55;;;8.50;99.90;;;;;;4969688;28;20038;-79
2022/12/24 03:59:12;;;;;;;29.75;5.15;;;8.40;99.90;;;;;;4975454;28;20034;-79
2022/12/24 04:01:37;;;;;;;34.15;5.85;;;8.50;99.90;;;;;;4977649;28;20037;-80
2022/12/24 04:04:03;;;;;;;30.50;5.75;;;8.40;99.90;;;;;;4976306;28;20050;-79
2022/12/24 04:06:29;;;;;;;33.60;6.10;;;8.50;99.90;;;;;;4967769;28;20110;-79
2022/12/24 04:08:54;;;;;;;33.72;6.00;;;8.40;99.90;;;;;;4961084;28;20548;-79
2022/12/24 04:11:20;;;;;;;36.83;6.35;;;8.40;99.90;;;;;;4977390;28;20045;-79
2022/12/24 04:13:45;;;;;;;35.60;5.97;;;8.50;99.90;;;;;;4959311;28;20081;-79
2022/12/24 04:16:16;;;;;;;37.60;5.95;;;8.50;99.90;;;;;;4961840;28;20065;-79
2022/12/24 04:18:42;;;;;;;33.55;5.65;;;8.50;99.90;;;;;;4977744;28;20053;-79
2022/12/24 04:21:08;;;;;;;33.97;5.45;;;8.50;99.90;;;;;;4961853;28;20486;-80
2022/12/24 04:23:36;;;;;;;34.95;6.15;;;8.50;99.90;;;;;;4976712;28;20045;-79
2022/12/24 04:26:04;;;;;;;30.08;5.55;;;8.50;99.90;;;;;;4976291;28;20039;-80
2022/12/24 04:28:30;;;;;;;38.88;6.00;;;8.50;99.90;;;;;;4983832;28;20038;-79
2022/12/24 04:31:00;;;;;;;33.58;5.68;;;8.40;99.90;;;;;;4977182;28;20086;-80
2022/12/24 04:33:26;;;;;;;35.47;5.82;;;8.60;99.90;;;;;;4968656;28;20042;-79
2022/12/24 04:35:51;;;;;;;35.30;5.40;;;8.50;99.90;;;;;;4959519;28;20484;-79
2022/12/24 04:38:17;;;;;;;33.80;4.65;;;8.50;99.90;;;;;;4977162;28;20176;-79
2022/12/24 04:40:43;;;;;;;38.15;6.07;;;8.50;99.90;;;;;;4976460;28;20501;-79
2022/12/24 04:43:08;;;;;;;43.78;7.00;;;8.50;99.90;;;;;;4980810;28;20026;-79
2022/12/24 04:45:34;;;;;;;38.45;6.82;;;8.50;99.90;;;;;;4979524;28;20042;-80
2022/12/24 04:48:00;;;;;;;35.17;6.13;;;8.50;99.90;;;;;;4961688;28;20122;-79
2022/12/24 04:50:25;;;;;;;38.30;6.35;;;8.50;99.90;;;;;;4977538;28;20042;-79
2022/12/24 04:52:51;;;;;;;42.28;6.18;;;8.60;99.90;;;;;;4957541;28;20038;-79
2022/12/24 04:55:16;;;;;;;33.67;4.82;;;8.50;99.90;;;;;;4970918;28;20035;-80
2022/12/24 04:57:42;;;;;;;38.38;6.13;;;8.60;99.90;;;;;;4974273;28;20046;-79
2022/12/24 05:00:08;;;;;;;41.13;6.78;;;8.50;99.90;;;;;;4976995;28;20038;-79
2022/12/24 05:02:35;;;;;;;41.03;6.22;;;8.60;99.90;;;;;;4976169;28;20366;-79
2022/12/24 05:05:00;;;;;;;29.00;5.55;;;8.60;99.90;;;;;;4975183;28;20039;-80
2022/12/24 05:07:26;;;;;;;31.45;4.70;;;8.50;99.90;;;;;;4979521;28;20510;-81
2022/12/24 05:09:52;;;;;;;40.83;5.40;;;8.50;99.90;;;;;;4979263;28;20042;-80
2022/12/24 05:12:17;;;;;;;35.60;5.22;;;8.50;99.90;;;;;;4970572;28;20093;-81
2022/12/24 05:14:43;;;;;;;35.60;5.55;;;8.50;99.90;;;;;;4977915;28;20034;-81
2022/12/24 05:17:08;;;;;;;39.50;6.05;;;8.50;99.90;;;;;;4963855;28;20070;-81
2022/12/24 05:19:34;;;;;;;42.45;5.93;;;8.50;99.90;;;;;;4980019;28;20055;-81
2022/12/24 05:27:28;;;;;;;39.20;5.60;;;8.50;99.90;;;;;;4980212;28;20181;-80
2022/12/24 05:29:54;;;;;;;39.33;5.47;;;8.50;99.90;;;;;;4980959;28;20066;-81
2022/12/24 05:32:19;;;;;;;47.83;7.47;;;8.50;99.90;;;;;;4973728;28;20046;-81
2022/12/24 05:34:45;;;;;;;39.38;5.40;;;8.50;99.90;;;;;;4965570;28;20045;-80
2022/12/24 05:37:10;;;;;;;34.42;4.75;;;8.50;99.90;;;;;;4990826;28;20042;-80
2022/12/24 05:39:36;;;;;;;41.33;6.00;;;8.50;99.90;;;;;;4962593;28;20030;-80
2022/12/24 05:42:02;;;;;;;28.27;5.75;;;8.50;99.90;;;;;;4971426;28;20039;-80
2022/12/24 05:44:27;;;;;;;33.00;6.22;;;8.50;99.90;;;;;;4986918;28;20030;-80
2022/12/24 05:46:53;;;;;;;39.65;5.45;;;8.40;99.90;;;;;;4967519;28;20081;-83
2022/12/24 05:49:18;;;;;;;35.95;5.28;;;8.40;99.90;;;;;;4975680;28;20115;-80
2022/12/24 05:51:44;;;;;;;34.53;5.55;;;8.30;99.90;;;;;;4958192;28;20049;-81
2022/12/24 05:54:09;;;;;;;31.33;5.00;;;8.20;99.90;;;;;;4975861;28;20444;-80
2022/12/24 05:56:35;;;;;;;34.05;5.07;;;8.20;99.90;;;;;;4959392;28;20052;-80
2022/12/24 05:59:01;;;;;;;32.05;4.90;;;8.10;99.90;;;;;;4955583;28;20038;-81
2022/12/24 06:01:26;;;;;;;43.50;5.63;;;8.00;99.90;;;;;;4968194;28;20034;-80
2022/12/24 06:03:52;;;;;;;34.47;6.18;;;8.00;99.90;;;;;;4975592;28;20045;-80
2022/12/24 06:06:23;;;;;;;29.15;5.00;;;7.90;99.90;;;;;;4959416;28;20409;-80
2022/12/24 06:08:50;;;;;;;31.42;4.65;;;7.90;99.90;;;;;;4973951;28;20038;-80
2022/12/24 06:11:18;;;;;;;31.40;5.47;;;7.90;99.90;;;;;;4974593;28;20409;-80
2022/12/24 06:13:44;;;;;;;30.13;4.80;;;7.80;99.90;;;;;;4986109;28;20065;-80
2022/12/24 06:16:15;;;;;;;35.95;6.05;;;7.80;99.90;;;;;;4959387;28;20408;-80
2022/12/24 06:18:42;;;;;;;37.33;5.25;;;7.80;99.90;;;;;;4975427;28;20081;-80
2022/12/24 06:21:08;;;;;;;32.95;5.38;;;7.80;99.90;;;;;;4959847;28;20074;-81
2022/12/24 06:23:36;;;;;;;36.25;5.78;;;7.90;99.90;;;;;;4973777;28;20027;-81
2022/12/24 06:26:02;;;;;;;38.42;6.60;;;7.90;99.90;;;;;;4976000;28;20035;-80
2022/12/24 06:28:31;;;;;;;35.97;5.90;;;8.00;99.90;;;;;;4959989;28;20089;-80
2022/12/24 06:30:56;;;;;;;22.25;4.38;;;7.90;99.90;;;;;;4977066;28;20044;-80
2022/12/24 06:33:23;;;;;;;29.58;5.00;;;7.90;99.90;;;;;;4971034;28;20129;-80
2022/12/24 06:35:49;;;;;;;31.45;5.28;;;7.80;99.90;;;;;;4977180;28;20134;-81
2022/12/24 06:38:15;;;;;;;29.60;4.50;;;7.80;99.90;;;;;;4973707;28;20494;-80
2022/12/24 06:40:43;;;;;;;31.35;5.43;;;7.70;99.90;;;;;;4993257;28;20030;-80
2022/12/24 06:43:10;;;;;;;37.42;5.90;;;7.70;99.90;;;;;;4978485;28;20034;-80
2022/12/24 06:45:36;;;;;;;40.85;6.07;;;7.60;99.90;;;;;;4962909;28;20042;-82
2022/12/24 06:48:01;;;;;;;27.90;5.18;;;7.60;99.90;;;;;;4971194;28;20042;-80
2022/12/24 06:50:27;;;;;;;38.50;5.47;;;7.60;99.90;;;;;;4979881;28;20065;-81
2022/12/24 06:52:53;;;;;;;35.75;6.05;;;7.70;99.90;;;;;;4977247;28;20408;-80
2022/12/24 06:55:18;;;;;;;31.40;5.57;;;7.70;99.90;;;;;;4979625;28;20045;-81
2022/12/24 06:57:44;;;;;;;31.25;5.13;;;7.70;99.90;;;;;;4963996;28;20043;-81
2022/12/24 07:00:11;;;;;;;32.78;5.75;;;7.70;99.90;;;;;;4977136;28;20489;-81
2022/12/24 07:02:41;;;;;;;34.28;5.82;;;7.60;99.90;;;;;;4970046;28;20398;-81
2022/12/24 07:05:09;;;;;;;29.33;6.53;;;7.60;99.90;;;;;;4971736;28;20408;-81
2022/12/24 07:07:39;;;;;;;37.65;5.70;;;7.70;99.90;;;;;;4978517;28;20078;-81
2022/12/24 07:10:06;;;;;;;35.40;6.60;;;7.70;99.90;;;;;;4960308;28;20049;-80
2022/12/24 07:12:32;;;;;;;34.78;6.60;;;7.70;99.90;;;;;;4946179;28;20339;-80
2022/12/24 07:14:58;;;;;;;37.13;6.20;;;7.80;99.90;;;;;;4962047;28;20392;-80
2022/12/24 07:17:23;;;;;;;37.55;6.75;;;7.90;99.90;;;;;;4979064;28;20038;-79
2022/12/24 07:19:49;;;;;;;39.28;6.45;;;7.90;99.90;;;;;;4978806;28;20508;-79
2022/12/24 07:22:15;;;;;;;42.22;6.90;;;8.00;99.90;;;;;;4972789;28;20053;-80
2022/12/24 07:24:40;;;;;;;38.60;6.45;;;8.00;99.90;;;;;;4964421;28;20034;-79
2022/12/24 07:27:06;;;;;;;43.25;6.68;;;8.00;99.90;;;;;;4980857;28;20481;-79
2022/12/24 07:29:31;;;;;;;30.92;6.70;;;8.10;99.90;;;;;;4964391;28;20088;-80
2022/12/24 07:31:57;;;;;;;35.35;6.35;;;8.10;99.90;;;;;;4956091;28;20038;-79
2022/12/24 07:34:22;;;;;;;40.35;7.43;;;8.10;99.90;;;;;;4976952;28;20493;-79
2022/12/24 07:36:48;;;;;;;41.88;7.63;;;8.10;99.90;;;;;;4963913;28;20101;-79
2022/12/24 07:39:14;;;;;;;48.03;7.03;;;8.10;99.90;;;;;;4961410;28;20039;-79
2022/12/24 07:41:39;;;;;;;33.53;6.72;;;8.20;99.90;;;;;;4977085;28;20493;-79
2022/12/24 07:44:05;;;;;;;45.72;5.85;;;8.20;99.90;;;;;;4971198;28;20045;-79
2022/12/24 07:46:30;;;;;;;40.72;6.32;;;8.20;99.90;;;;;;4992440;28;20034;-79
2022/12/24 07:48:56;;;;;;;35.60;6.82;;;8.20;99.90;;;;;;4979903;28;20042;-79
2022/12/24 07:51:21;;;;;;;43.63;7.43;;;8.20;99.90;;;;;;4964496;28;20086;-80
2022/12/24 07:53:47;;;;;;;32.17;6.45;;;8.30;99.90;;;;;;4985079;28;20133;-80
2022/12/24 07:56:14;;;;;;;42.63;6.80;;;8.30;99.90;;;;;;4984880;28;20053;-80
2022/12/24 07:58:40;;;;;;;39.10;7.60;;;8.30;99.90;;;;;;4978785;28;20038;-80
2022/12/24 08:01:06;;;;;;;39.28;7.40;;;8.30;99.90;;;;;;4971022;28;20137;-81
2022/12/24 08:03:32;;;;;;;38.55;6.55;;;8.30;99.90;;;;;;4972330;28;20508;-80
2022/12/24 08:05:58;;;;;;;38.88;7.22;;;8.40;99.90;;;;;;4979767;28;20034;-80
2022/12/24 08:08:24;;;;;;;41.30;7.18;;;8.40;99.90;;;;;;4979341;28;20456;-80
2022/12/24 08:10:49;;;;;;;38.75;6.65;;;8.40;99.90;;;;;;4963016;28;20113;-80
2022/12/24 08:13:16;;;;;;;32.20;6.85;;;8.40;99.90;;;;;;4969279;28;20077;-80
2022/12/24 08:15:43;;;;;;;44.50;8.40;;;8.40;99.90;;;;;;4965765;28;20034;-80
2022/12/24 08:18:10;;;;;;;39.70;7.78;;;8.50;99.90;;;;;;4984772;28;20039;-80
2022/12/24 08:20:38;;;;;;;34.78;7.40;;;8.50;99.90;;;;;;4979214;28;20038;-80
2022/12/24 08:23:04;;;;;;;43.17;8.35;;;8.50;99.90;;;;;;4976415;28;20049;-80
2022/12/24 08:25:30;;;;;;;42.13;7.63;;;8.50;99.90;;;;;;4967563;28;20038;-80
2022/12/24 08:27:56;;;;;;;42.00;7.85;;;8.50;99.90;;;;;;4974641;28;20061;-80
2022/12/24 08:30:22;;;;;;;40.83;7.88;;;8.50;99.90;;;;;;4983863;28;20409;-80
2022/12/24 08:32:47;;;;;;;36.95;7.72;;;8.60;99.90;;;;;;4980791;28;20046;-79
2022/12/24 08:35:13;;;;;;;38.90;7.65;;;8.60;99.90;;;;;;4976018;28;20041;-80
2022/12/24 08:37:40;;;;;;;39.45;7.90;;;8.70;99.90;;;;;;4981096;28;20046;-79
2022/12/24 08:40:07;;;;;;;51.80;8.77;;;8.60;99.90;;;;;;4965067;28;20039;-80
2022/12/24 08:42:32;;;;;;;47.75;8.68;;;8.70;99.90;;;;;;4977633;28;20042;-79
2022/12/24 08:44:58;;;;;;;44.38;8.90;;;8.70;99.90;;;;;;4976403;28;20105;-79
2022/12/24 08:47:24;;;;;;;41.75;8.52;;;8.80;99.90;;;;;;4990026;28;20042;-79
2022/12/24 08:49:49;;;;;;;41.00;7.97;;;8.80;99.90;;;;;;4967408;28;20053;-80
2022/12/24 08:52:15;;;;;;;45.78;8.55;;;8.90;99.90;;;;;;4974266;28;20072;-80
2022/12/24 08:54:40;;;;;;;33.25;7.40;;;8.90;99.90;;;;;;4978733;28;20125;-80
2022/12/24 08:57:06;;;;;;;37.58;7.32;;;8.80;99.90;;;;;;4969848;28;20034;-80
2022/12/24 08:59:31;;;;;;;35.40;7.55;;;8.90;99.90;;;;;;4983053;28;20265;-80
2022/12/24 09:01:57;;;;;;;33.97;7.13;;;9.00;99.90;;;;;;4967119;28;20045;-80
2022/12/24 09:04:23;;;;;;;37.22;8.57;;;9.00;99.90;;;;;;4973460;28;20042;-80
2022/12/24 09:06:48;;;;;;;40.72;7.70;;;9.10;99.90;;;;;;4982249;28;20073;-80
2022/12/24 09:09:14;;;;;;;34.55;6.93;;;9.20;99.90;;;;;;4982458;28;20481;-80
2022/12/24 09:11:39;;;;;;;36.75;7.15;;;9.30;99.90;;;;;;4982191;28;20065;-80
2022/12/24 09:14:05;;;;;;;29.83;6.70;;;9.20;99.90;;;;;;4978280;28;20038;-80
2022/12/24 09:16:30;;;;;;;37.70;7.35;;;9.20;99.90;;;;;;4977537;28;20042;-80
2022/12/24 09:18:56;;;;;;;49.60;9.05;;;9.20;99.90;;;;;;4980258;28;20053;-80
2022/12/24 09:21:22;;;;;;;36.97;6.82;;;9.20;99.90;;;;;;4964750;28;20038;-80
2022/12/24 09:23:48;;;;;;;38.90;6.18;;;9.20;99.90;;;;;;4964902;28;20121;-81
2022/12/24 09:26:23;;;;;;;36.28;6.32;;;9.20;99.90;;;;;;4981191;28;20030;-80
2022/12/24 09:28:49;;;;;;;33.97;7.38;;;9.20;99.90;;;;;;4967255;28;20046;-79
2022/12/24 09:31:15;;;;;;;37.97;6.47;;;9.20;99.90;;;;;;4967016;28;20031;-77
2022/12/24 09:33:42;;;;;;;41.60;6.28;;;9.20;99.90;;;;;;4975369;28;20042;-79
2022/12/24 09:36:08;;;;;;;37.50;6.28;;;9.20;99.90;;;;;;4958192;28;20045;-80
2022/12/24 09:38:35;;;;;;;33.78;5.97;;;9.20;99.90;;;;;;4981963;28;20042;-80
2022/12/24 09:41:14;;;;;;;35.08;6.25;;;9.20;99.90;;;;;;4951048;28;20057;-81
2022/12/24 09:43:50;;;;;;;31.83;5.63;;;9.10;99.90;;;;;;4975752;28;20518;-80
2022/12/24 09:46:29;;;;;;;36.30;5.50;;;9.10;99.90;;;;;;4966342;28;20088;-79
2022/12/24 09:49:02;;;;;;;34.72;5.65;;;9.10;99.90;;;;;;4964535;28;20100;-79
2022/12/24 09:51:42;;;;;;;33.33;5.57;;;9.10;99.90;;;;;;4976111;28;20049;-79
2022/12/24 09:54:14;;;;;;;39.10;5.85;;;9.10;99.90;;;;;;4973390;28;20038;-78
2022/12/24 09:56:43;;;;;;;33.55;5.97;;;9.00;99.90;;;;;;4954818;28;20069;-78
2022/12/24 09:59:25;;;;;;;34.33;5.53;;;9.00;99.90;;;;;;4955344;28;20047;-80
2022/12/24 10:01:53;;;;;;;34.40;5.90;;;9.00;99.90;;;;;;4979314;28;20045;-80
2022/12/24 10:04:28;;;;;;;41.60;6.68;;;9.00;99.90;;;;;;4957276;28;20066;-77
2022/12/24 10:07:05;;;;;;;41.20;6.30;;;8.90;99.90;;;;;;4970117;28;20125;-77
2022/12/24 10:09:51;;;;;;;40.08;6.00;;;9.00;99.90;;;;;;4967388;28;20038;-78
2022/12/24 10:12:24;;;;;;;35.45;6.57;;;9.00;99.90;;;;;;4984851;28;20030;-77
2022/12/24 10:14:49;;;;;;;43.13;7.90;;;9.00;99.90;;;;;;4973599;28;20042;-79
2022/12/24 10:17:33;;;;;;;39.92;6.65;;;9.10;99.90;;;;;;4974813;28;20065;-78
2022/12/24 10:20:25;;;;;;;33.88;6.03;;;9.20;99.90;;;;;;4953954;28;20035;-78
2022/12/24 10:23:12;;;;;;;40.25;7.38;;;9.30;99.90;;;;;;4990484;28;20136;-77
2022/12/24 10:25:50;;;;;;;37.13;6.38;;;9.30;99.90;;;;;;4977395;28;20638;-79
2022/12/24 10:28:22;;;;;;;40.53;6.80;;;9.40;99.90;;;;;;4959353;28;20485;-79
2022/12/24 10:30:54;;;;;;;37.53;6.57;;;9.40;99.90;;;;;;4958876;28;20044;-80
2022/12/24 10:33:29;;;;;;;36.45;6.85;;;9.40;99.90;;;;;;4975577;28;20397;-79
2022/12/24 10:35:56;;;;;;;42.90;7.85;;;9.40;99.90;;;;;;4975640;28;20039;-78
2022/12/24 10:38:21;;;;;;;45.92;6.90;;;9.40;99.90;;;;;;4951724;28;20039;-78
2022/12/24 10:40:54;;;;;;;35.42;5.68;;;9.50;99.90;;;;;;4979362;28;20038;-77
2022/12/24 10:43:23;;;;;;;37.75;6.68;;;9.50;99.90;;;;;;4976146;28;20110;-78
2022/12/24 10:45:58;;;;;;;37.47;5.88;;;9.50;99.90;;;;;;4965933;28;20038;-78
2022/12/24 10:48:39;;;;;;;41.50;6.22;;;9.50;99.90;;;;;;4968412;28;20405;-78
2022/12/24 10:51:44;;;;;;;44.15;6.80;;;9.50;99.90;;;;;;4975898;28;20117;-79
2022/12/24 10:54:16;;;;;;;47.22;7.40;;;9.50;99.90;;;;;;4962700;28;20050;-80
2022/12/24 10:56:45;;;;;;;42.53;6.33;;;9.40;99.90;;;;;;4968448;28;20066;-78
2022/12/24 10:59:25;;;;;;;41.25;6.18;;;9.50;99.90;;;;;;4977768;28;20297;-78
2022/12/24 11:01:51;;;;;;;34.75;6.90;;;9.40;99.90;;;;;;4977818;28;20097;-78
2022/12/24 11:04:19;;;;;;;46.35;7.38;;;9.40;99.90;;;;;;4977854;28;20042;-78
2022/12/24 11:06:57;;;;;;;47.72;7.25;;;9.40;99.90;;;;;;4971002;28;20509;-77
2022/12/24 11:09:25;;;;;;;35.67;6.50;;;9.40;99.90;;;;;;4979636;28;20045;-76
2022/12/24 11:11:50;;;;;;;33.72;5.78;;;9.40;99.90;;;;;;4963514;28;20037;-77
2022/12/24 11:14:18;;;;;;;30.08;6.35;;;9.40;99.90;;;;;;4974629;28;20046;-77
2022/12/24 11:16:54;;;;;;;38.45;6.53;;;9.40;99.90;;;;;;4975717;28;20038;-78
2022/12/24 11:19:32;;;;;;;40.03;6.68;;;9.40;99.90;;;;;;4975916;28;20070;-78
2022/12/24 11:22:06;;;;;;;34.85;5.95;;;9.40;99.90;;;;;;4978287;28;20121;-77
2022/12/24 11:24:37;;;;;;;34.42;5.28;;;9.40;99.90;;;;;;4977295;28;20038;-77
2022/12/24 11:27:30;;;;;;;30.45;5.97;;;9.40;99.90;;;;;;4974589;28;20046;-77
2022/12/24 11:30:14;;;;;;;36.37;6.60;;;9.40;99.90;;;;;;4991873;28;20057;-77
2022/12/24 11:32:44;;;;;;;39.70;6.13;;;9.50;99.90;;;;;;4978123;28;20297;-78
2022/12/24 11:35:17;;;;;;;38.42;7.35;;;9.50;99.90;;;;;;4978234;28;20113;-77
2022/12/24 11:37:43;;;;;;;30.20;6.13;;;9.50;99.90;;;;;;4976310;28;20038;-78
2022/12/24 11:40:20;;;;;;;29.60;5.57;;;9.60;99.90;;;;;;4962163;28;20130;-78
2022/12/24 11:42:49;;;;;;;30.45;5.05;;;9.60;99.90;;;;;;4993661;28;20114;-78
2022/12/24 11:45:28;;;;;;;35.67;5.47;;;9.60;99.90;;;;;;4976933;28;20031;-78
2022/12/24 11:47:54;;;;;;;36.38;6.05;;;9.60;99.90;;;;;;4959510;28;20074;-78
2022/12/24 11:50:34;;;;;;;39.67;6.38;;;9.60;99.90;;;;;;4961371;28;20536;-78
2022/12/24 11:53:03;;;;;;;34.65;6.50;;;9.60;99.90;;;;;;4966527;28;21281;-79
2022/12/24 11:55:50;;;;;;;31.85;6.05;;;9.60;99.90;;;;;;4974474;28;20066;-80
2022/12/24 11:58:41;;;;;;;40.92;7.72;;;9.60;99.90;;;;;;4991471;28;20448;-79
2022/12/24 12:01:24;;;;;;;40.88;5.47;;;9.60;99.90;;;;;;4979540;28;20050;-80
2022/12/24 12:04:05;;;;;;;31.02;5.05;;;9.60;99.90;;;;;;4991651;23;20045;-81
2022/12/24 12:06:34;;;;;;;30.45;5.35;;;9.70;99.90;;;;;;5002382;28;20054;-81
2022/12/24 12:09:25;;;;;;;35.67;5.10;;;9.70;99.90;;;;;;5000424;28;20503;-81
2022/12/24 12:12:04;;;;;;;29.30;5.40;;;9.70;99.90;;;;;;4984953;28;20077;-81
2022/12/24 12:14:47;;;;;;;30.02;5.65;;;9.80;99.90;;;;;;4966987;28;20399;-81
2022/12/24 12:17:38;;;;;;;27.05;5.18;;;9.80;99.90;;;;;;4981087;28;20453;-81
2022/12/24 12:20:43;;;;;;;29.15;5.30;;;9.80;99.90;;;;;;4974925;28;20038;-81
2022/12/24 12:23:12;;;;;;;27.75;4.68;;;9.90;99.90;;;;;;4973897;28;20042;-80
2022/12/24 12:25:58;;;;;;;22.00;4.43;;;9.90;99.90;;;;;;4964381;28;20045;-81
2022/12/24 12:28:53;;;;;;;25.45;4.60;;;9.90;99.90;;;;;;4974551;28;20049;-81
2022/12/24 12:31:24;;;;;;;24.83;5.15;;;10.00;99.90;;;;;;4975251;28;20404;-81
2022/12/24 12:34:11;;;;;;;24.15;4.60;;;10.00;99.90;;;;;;4965004;28;20073;-81
2022/12/24 12:37:07;;;;;;;23.67;3.97;;;10.00;99.90;;;;;;4980518;28;20096;-80
2022/12/24 12:39:35;;;;;;;25.17;4.13;;;10.00;99.90;;;;;;4976786;28;20034;-79
2022/12/24 12:42:29;;;;;;;27.67;4.45;;;9.80;99.90;;;;;;4989496;28;20401;-80
2022/12/24 12:45:37;;;;;;;19.77;3.80;;;9.90;99.90;;;;;;4977699;28;20034;-80
2022/12/24 12:48:21;;;;;;;24.73;4.78;;;9.90;99.90;;;;;;4920827;29;20078;-80
2022/12/24 12:50:57;;;;;;;16.08;3.80;;;9.90;99.90;;;;;;4905689;29;20044;-80
2022/12/24 12:54:03;;;;;;;26.35;4.05;;;9.80;99.90;;;;;;4958117;28;20057;-80
2022/12/24 12:56:32;;;;;;;17.02;3.13;;;9.80;99.90;;;;;;4965426;28;20046;-80
2022/12/24 12:59:10;;;;;;;16.40;3.83;;;9.70;99.90;;;;;;4962851;28;20034;-79
2022/12/24 13:01:53;;;;;;;22.25;3.40;;;9.60;99.90;;;;;;4978544;28;20046;-78
2022/12/24 13:04:55;;;;;;;14.48;3.53;;;9.50;99.90;;;;;;4955174;28;20037;-79
2022/12/24 13:07:41;;;;;;;19.45;4.07;;;9.40;99.90;;;;;;4983046;28;20100;-79
2022/12/24 13:10:44;;;;;;;17.17;3.13;;;9.30;99.90;;;;;;4962490;28;20043;-78
2022/12/24 13:13:29;;;;;;;15.82;3.28;;;9.20;99.90;;;;;;4958965;28;20038;-78